Alum Ridge, Virginia
Current Conditions -  °F | °C
As of 3:15 AM on Thursday 18 Dec 2014 (Local Time) from KBCB Reporting Station
Clear Clear  
Wind Chill: 21°   Ceiling: Unl
Heat Index: 30°   Visibility: 10mi
Dew Point: 22°   Wind: 10mph
Humidity: 72%   Direction: 290°WNW
Pressure: 30.12"   Gusts: 18mph
Location:  36.9207°N, 80.3192°W
Report Text: KBCB 180815Z AUTO 29009G16KT 250V310 10SM CLR M01/M06 A3012 RMK AO2 T10111056
Loading
Personal Weather Stations






























Interactive Weather Map New forecast layout! Learn more

10-Day Weather Forecast

Advertisements
Track Severe Weather on mobile